KDXR/DXR METAR and TAF weather

Enter ICAO airport designator
Station Type Date Time Source
KDXR METAR 2021/09/28 15:53 UTC NOAA

KDXR 281553Z 22003KT 5SM -RA BR OVC110 18/16 A2985 RMK AO2 LTG DSNT NE AND NW SLP103 P0011 T01780161


Station Type Date Time Source
KDXR Decoded METAR 2021/09/28 15:53 UTC NOAA

DANBURY MUNICIPAL AIRPORT, CT, United States (KDXR) 41-22N 073-29W 139M
Sep 28, 2021 - 11:53 AM EDT / 2021.09.28 1553 UTC
Wind: from the SW (220 degrees) at 3 MPH (3 KT):0
Visibility: 5 mile(s):0
Sky conditions: overcast
Weather: light rain; mist; Lightning observed
Precipitation last hour: 0.11 inches
Temperature: 64.0 F (17.8 C)
Dew Point: 61.0 F (16.1 C)
Relative Humidity: 89%
Pressure (altimeter): 29.85 in. Hg (1010 hPa)
ob: KDXR 281553Z 22003KT 5SM -RA BR OVC110 18/16 A2985 RMK AO2 LTG DSNT NE AND NW SLP103 P0011 T01780161
cycle: 16

Station Type Date Time Source
KDXR TAF UTC NOAA

Error!

Example: see airport list